Time;durP1;ratioP1;P1;durP2;ratioP2;P2;SDS_P1;SDS_P2;PMS_P1;PMS_P2;Temp;Humidity;BMP_temperature;BMP_pressure;BME280_temperature;BME280_humidity;BME280_pressure;Samples;Min_cycle;Max_cycle;Signal;HPM_P1;HPM_P2
2023/08/22 08:44:16;;;;;;;1.10;0.88;;;27.00;99.90;;;;;;4819026;29;20276;-76
2023/08/22 08:46:44;;;;;;;3.67;0.70;;;26.90;99.90;;;;;;4823118;29;20226;-72
2023/08/22 08:49:12;;;;;;;2.45;1.00;;;27.00;99.90;;;;;;4822123;29;20237;-78
2023/08/22 08:51:40;;;;;;;1.73;0.77;;;27.00;99.90;;;;;;4819191;29;20220;-70
2023/08/22 08:54:07;;;;;;;1.63;0.70;;;26.90;99.90;;;;;;4804596;29;20334;-75
2023/08/22 08:56:34;;;;;;;2.65;0.85;;;26.90;99.90;;;;;;4804500;29;20306;-72
2023/08/22 08:59:01;;;;;;;3.20;0.80;;;27.00;99.90;;;;;;4804381;29;20336;-73
2023/08/22 09:01:31;;;;;;;2.20;0.77;;;27.00;99.90;;;;;;4821040;29;20752;-72
2023/08/22 09:03:57;;;;;;;1.50;0.70;;;27.20;99.90;;;;;;4823285;29;20249;-73
2023/08/22 09:06:26;;;;;;;2.03;0.68;;;27.00;99.90;;;;;;4822785;29;20277;-71
2023/08/22 09:09:04;;;;;;;4.05;0.90;;;27.20;99.90;;;;;;4822338;29;20796;-74
2023/08/22 09:11:31;;;;;;;3.22;0.80;;;26.90;99.90;;;;;;4822767;29;20217;-74
2023/08/22 09:13:58;;;;;;;2.80;0.60;;;26.80;99.90;;;;;;4822894;29;20304;-74
2023/08/22 09:16:26;;;;;;;2.38;0.50;;;26.70;99.90;;;;;;4822947;29;20300;-71
2023/08/22 09:18:59;;;;;;;1.65;0.73;;;26.80;99.90;;;;;;4822923;29;20281;-74
2023/08/22 09:21:26;;;;;;;1.58;0.70;;;26.70;99.90;;;;;;4822460;29;20223;-72
2023/08/22 09:23:53;;;;;;;2.08;0.47;;;26.60;99.90;;;;;;4822847;29;20340;-72
2023/08/22 09:26:23;;;;;;;3.35;0.75;;;26.50;99.90;;;;;;4822805;29;20218;-71
2023/08/22 09:28:50;;;;;;;1.88;0.70;;;26.40;99.90;;;;;;4822556;29;20213;-71
2023/08/22 09:31:24;;;;;;;1.88;0.60;;;26.50;99.90;;;;;;4822900;29;20253;-71
2023/08/22 09:33:51;;;;;;;1.45;0.70;;;26.60;99.90;;;;;;4821433;29;20751;-72
2023/08/22 09:36:21;;;;;;;2.15;0.68;;;26.70;99.90;;;;;;4823133;29;20217;-75
2023/08/22 09:38:55;;;;;;;1.65;0.50;;;26.70;99.90;;;;;;4823671;29;20300;-74
2023/08/22 09:46:33;;;;;;;3.38;0.60;;;26.70;99.90;;;;;;4130771;23;20247;-73
2023/08/22 09:49:01;;;;;;;1.85;0.60;;;26.80;99.90;;;;;;4859852;29;20243;-73
2023/08/22 09:51:32;;;;;;;2.55;0.60;;;26.80;99.90;;;;;;4859914;29;20268;-73
2023/08/22 09:54:00;;;;;;;2.13;0.50;;;26.90;99.90;;;;;;4851729;29;20738;-72
2023/08/22 09:56:28;;;;;;;1.73;0.70;;;26.90;99.90;;;;;;4860617;29;20212;-72
2023/08/22 09:58:55;;;;;;;0.70;0.50;;;26.90;99.90;;;;;;4867163;29;20236;-71
2023/08/22 10:01:23;;;;;;;0.75;0.50;;;26.90;99.90;;;;;;4866186;29;20250;-72
2023/08/22 10:03:53;;;;;;;2.28;0.70;;;26.80;99.90;;;;;;4849861;29;20239;-74
2023/08/22 10:06:23;;;;;;;1.20;0.50;;;26.90;99.90;;;;;;4843331;29;20303;-73
2023/08/22 10:08:51;;;;;;;2.47;0.73;;;26.90;99.90;;;;;;4849142;29;20213;-74
2023/08/22 10:11:19;;;;;;;2.83;0.60;;;27.00;99.90;;;;;;4840474;29;20320;-72
2023/08/22 10:13:46;;;;;;;1.70;0.60;;;27.10;99.90;;;;;;4851859;29;20260;-73
2023/08/22 10:16:13;;;;;;;3.83;0.60;;;27.00;99.90;;;;;;4841120;29;20244;-73
2023/08/22 10:18:40;;;;;;;3.67;0.98;;;27.20;99.90;;;;;;4840419;29;20311;-74
2023/08/22 10:21:07;;;;;;;1.48;0.63;;;27.30;99.90;;;;;;4842127;29;20327;-74
2023/08/22 10:23:57;;;;;;;1.85;0.57;;;27.30;99.90;;;;;;4844212;29;20267;-74
2023/08/22 10:26:28;;;;;;;2.40;0.70;;;27.40;99.90;;;;;;4843794;29;20549;-73
2023/08/22 10:29:13;;;;;;;1.80;0.60;;;27.50;99.90;;;;;;4844239;29;20255;-74
2023/08/22 10:32:13;;;;;;;2.05;0.80;;;27.50;99.90;;;;;;4844987;29;20328;-74
2023/08/22 10:35:29;;;;;;;2.00;0.70;;;27.70;99.90;;;;;;4843618;29;20253;-73
2023/08/22 10:37:57;;;;;;;0.68;0.40;;;27.30;99.90;;;;;;4858778;29;20239;-75
2023/08/22 10:40:28;;;;;;;1.60;0.80;;;27.20;99.90;;;;;;4849819;29;20240;-74
2023/08/22 10:43:12;;;;;;;1.50;0.65;;;27.10;99.90;;;;;;4843702;29;20241;-73
2023/08/22 10:45:40;;;;;;;2.50;0.90;;;27.10;99.90;;;;;;4845665;29;20625;-73
2023/08/22 10:48:12;;;;;;;4.53;0.65;;;27.20;99.90;;;;;;4845585;29;20575;-74
2023/08/22 10:50:43;;;;;;;0.98;0.60;;;27.20;99.90;;;;;;4844835;29;20217;-73
2023/08/22 10:53:22;;;;;;;1.63;0.68;;;27.30;99.90;;;;;;4846662;29;20640;-73
2023/08/22 10:55:52;;;;;;;0.55;0.50;;;27.40;99.90;;;;;;4847904;29;20212;-73
2023/08/22 10:58:39;;;;;;;1.50;0.65;;;27.60;99.90;;;;;;4844326;29;20244;-73
2023/08/22 11:01:07;;;;;;;0.95;0.60;;;27.60;99.90;;;;;;4844400;29;20709;-73
2023/08/22 11:03:34;;;;;;;3.42;0.68;;;27.50;99.90;;;;;;4848899;29;20233;-72
2023/08/22 11:06:01;;;;;;;3.30;0.47;;;27.40;99.90;;;;;;4847122;29;20749;-73
2023/08/22 11:08:28;;;;;;;3.67;1.02;;;27.20;99.90;;;;;;4843957;29;20261;-73
2023/08/22 11:10:58;;;;;;;1.33;0.57;;;27.00;99.90;;;;;;4843020;29;20251;-72
2023/08/22 11:13:37;;;;;;;1.65;0.60;;;26.90;99.90;;;;;;4843320;29;20732;-72
2023/08/22 11:16:08;;;;;;;1.30;0.47;;;27.20;99.90;;;;;;4843704;29;20219;-72
2023/08/22 11:18:36;;;;;;;2.30;0.38;;;27.50;99.90;;;;;;4842817;29;20221;-72
2023/08/22 11:21:03;;;;;;;2.17;0.60;;;27.60;99.90;;;;;;4843242;29;20327;-72
2023/08/22 11:23:32;;;;;;;2.20;0.70;;;27.80;99.90;;;;;;4843319;29;20482;-72
2023/08/22 11:26:02;;;;;;;2.47;0.60;;;28.00;99.90;;;;;;4842422;29;20672;-72
2023/08/22 11:28:33;;;;;;;1.05;0.50;;;27.90;99.90;;;;;;4842553;29;20228;-72
2023/08/22 11:31:02;;;;;;;2.53;0.50;;;28.00;99.90;;;;;;4842643;29;20256;-72
2023/08/22 11:33:38;;;;;;;1.38;0.43;;;28.00;99.90;;;;;;4841659;29;20323;-72
2023/08/22 11:36:06;;;;;;;1.05;0.50;;;28.10;99.90;;;;;;4842510;29;20515;-72
2023/08/22 11:38:35;;;;;;;2.25;0.40;;;28.30;99.90;;;;;;4842523;29;20303;-72
2023/08/22 11:41:04;;;;;;;0.52;0.30;;;28.30;99.90;;;;;;4842108;29;20700;-72
2023/08/22 11:43:32;;;;;;;1.10;0.57;;;28.50;99.70;;;;;;4842133;29;20261;-72
2023/08/22 11:45:59;;;;;;;0.80;0.35;;;28.50;99.90;;;;;;4842152;29;20216;-72
2023/08/22 11:48:27;;;;;;;0.68;0.30;;;28.80;99.90;;;;;;4841999;29;20219;-72
2023/08/22 11:50:53;;;;;;;0.40;0.40;;;28.80;99.50;;;;;;4842401;29;20221;-72
2023/08/22 11:53:20;;;;;;;0.80;0.40;;;28.60;98.80;;;;;;4842471;29;20272;-72
2023/08/22 11:55:49;;;;;;;0.93;0.38;;;28.70;98.50;;;;;;4841908;29;20255;-72
2023/08/22 11:58:17;;;;;;;1.70;0.50;;;28.80;99.90;;;;;;4842083;29;20208;-72
2023/08/22 12:00:44;;;;;;;0.52;0.30;;;28.70;99.70;;;;;;4842124;29;20240;-72
2023/08/22 12:03:11;;;;;;;1.60;0.40;;;28.50;97.70;;;;;;4841725;29;20669;-72
2023/08/22 12:05:39;;;;;;;0.60;0.50;;;28.30;98.00;;;;;;4841688;29;20687;-72
2023/08/22 12:08:20;;;;;;;1.95;0.32;;;28.00;99.20;;;;;;4841732;29;20311;-72
2023/08/22 12:10:49;;;;;;;1.50;0.45;;;27.90;99.60;;;;;;4841056;29;20252;-72
2023/08/22 12:13:19;;;;;;;0.93;0.50;;;28.00;99.20;;;;;;4841660;29;20324;-72
2023/08/22 12:15:46;;;;;;;1.20;0.47;;;28.30;99.70;;;;;;4841740;29;20244;-72
2023/08/22 12:18:13;;;;;;;0.52;0.38;;;28.60;99.80;;;;;;4841226;29;20652;-72
2023/08/22 12:20:42;;;;;;;1.92;0.65;;;28.60;98.90;;;;;;4841864;29;20282;-72
2023/08/22 12:23:10;;;;;;;1.17;0.40;;;28.60;99.10;;;;;;4840984;29;20289;-72
2023/08/22 12:25:38;;;;;;;2.38;0.50;;;28.80;99.00;;;;;;4840697;29;20216;-72
2023/08/22 12:28:06;;;;;;;3.13;0.40;;;28.50;99.00;;;;;;4841721;29;20217;-72
2023/08/22 12:30:36;;;;;;;0.60;0.50;;;28.40;99.30;;;;;;4841302;29;21339;-73
2023/08/22 12:33:04;;;;;;;2.80;0.45;;;28.10;99.90;;;;;;4841215;29;20237;-72
2023/08/22 12:35:33;;;;;;;0.95;0.40;;;28.00;99.70;;;;;;4841417;29;20236;-72
2023/08/22 12:38:00;;;;;;;1.83;0.60;;;28.20;98.70;;;;;;4841741;29;20300;-72
2023/08/22 12:40:27;;;;;;;1.60;0.50;;;28.20;99.70;;;;;;4841262;29;20327;-72
2023/08/22 12:42:55;;;;;;;1.75;0.47;;;27.70;98.30;;;;;;4842120;29;20320;-72
2023/08/22 12:45:23;;;;;;;1.20;0.50;;;27.50;98.30;;;;;;4857801;29;20208;-72
2023/08/22 12:47:51;;;;;;;1.17;0.50;;;27.40;99.00;;;;;;4858940;29;20306;-72
2023/08/22 12:50:18;;;;;;;2.35;0.50;;;27.70;99.10;;;;;;4859723;29;20303;-72
2023/08/22 12:52:45;;;;;;;1.27;0.40;;;27.90;97.10;;;;;;4860062;29;20219;-72
2023/08/22 12:55:13;;;;;;;1.42;0.40;;;27.90;98.70;;;;;;4845105;29;20680;-72
2023/08/22 12:57:41;;;;;;;0.68;0.35;;;27.80;98.20;;;;;;4841346;29;20669;-72
2023/08/22 13:00:10;;;;;;;1.02;0.43;;;27.60;98.00;;;;;;4843020;29;20281;-72
2023/08/22 13:02:37;;;;;;;1.17;0.40;;;27.60;99.10;;;;;;4842462;29;20267;-72
2023/08/22 13:05:06;;;;;;;1.98;0.82;;;27.50;99.30;;;;;;4842406;29;20304;-71
2023/08/22 13:07:33;;;;;;;1.02;0.50;;;27.40;98.80;;;;;;4842834;29;20215;-72
2023/08/22 13:10:00;;;;;;;1.13;0.20;;;27.40;98.80;;;;;;4842488;29;20672;-72
2023/08/22 13:12:27;;;;;;;1.63;0.40;;;27.40;98.00;;;;;;4842779;29;20630;-71
2023/08/22 13:14:53;;;;;;;1.58;0.30;;;27.40;98.40;;;;;;4842378;29;20267;-71
2023/08/22 13:17:20;;;;;;;1.02;0.30;;;27.30;98.80;;;;;;4842380;29;20304;-72
2023/08/22 13:19:47;;;;;;;1.15;0.43;;;27.10;99.90;;;;;;4842083;29;20216;-72
2023/08/22 13:22:15;;;;;;;0.82;0.30;;;26.90;99.10;;;;;;4842038;29;20300;-72
2023/08/22 13:24:42;;;;;;;2.08;0.40;;;26.90;98.60;;;;;;4842082;29;20236;-71
2023/08/22 13:27:09;;;;;;;0.90;0.40;;;27.00;99.90;;;;;;4842286;29;20304;-71
2023/08/22 13:29:36;;;;;;;1.88;0.40;;;26.90;99.70;;;;;;4842238;29;20213;-71
2023/08/22 13:32:03;;;;;;;1.08;0.40;;;26.90;99.90;;;;;;4842004;29;20654;-72
2023/08/22 13:34:30;;;;;;;0.63;0.30;;;26.80;99.40;;;;;;4841974;29;20239;-72
2023/08/22 13:36:57;;;;;;;3.08;0.28;;;26.80;99.30;;;;;;4841951;29;20245;-72
2023/08/22 13:39:25;;;;;;;0.60;0.40;;;26.80;99.70;;;;;;4842003;29;20710;-72
2023/08/22 13:41:52;;;;;;;0.63;0.30;;;26.80;99.10;;;;;;4842392;29;20713;-72
2023/08/22 13:44:19;;;;;;;0.73;0.43;;;26.90;99.10;;;;;;4842176;29;20335;-71
2023/08/22 13:46:47;;;;;;;2.72;0.35;;;27.00;98.50;;;;;;4841978;29;20271;-71
2023/08/22 13:49:14;;;;;;;0.60;0.38;;;27.00;99.70;;;;;;4841842;29;20572;-71
2023/08/22 13:51:41;;;;;;;1.48;0.35;;;26.90;99.00;;;;;;4842045;29;20300;-71
2023/08/22 13:54:08;;;;;;;1.55;0.90;;;26.70;99.40;;;;;;4843516;29;20271;-71
2023/08/22 13:56:36;;;;;;;0.60;0.40;;;26.60;99.90;;;;;;4845735;29;20212;-70
2023/08/22 13:59:03;;;;;;;0.98;0.30;;;26.60;99.60;;;;;;4845549;29;20304;-70
2023/08/22 14:01:30;;;;;;;2.42;0.32;;;26.70;99.70;;;;;;4845382;29;20279;-71
2023/08/22 14:03:59;;;;;;;1.58;0.63;;;26.70;99.50;;;;;;4845224;29;20665;-71
2023/08/22 14:06:25;;;;;;;1.48;0.47;;;26.90;99.80;;;;;;4845384;29;20212;-72
2023/08/22 14:08:52;;;;;;;0.60;0.40;;;26.90;99.90;;;;;;4845514;29;20680;-70
2023/08/22 14:11:19;;;;;;;3.28;0.40;;;26.90;99.90;;;;;;4845346;29;20640;-72
2023/08/22 14:13:48;;;;;;;0.75;0.30;;;26.90;99.90;;;;;;4845213;29;20672;-74
2023/08/22 14:16:15;;;;;;;0.50;0.30;;;26.90;99.90;;;;;;4845351;29;20240;-71
2023/08/22 14:18:41;;;;;;;0.50;0.25;;;27.00;99.20;;;;;;4840208;29;20620;-72
2023/08/22 14:21:09;;;;;;;0.40;0.30;;;27.00;99.60;;;;;;4843449;29;20278;-72
2023/08/22 14:23:35;;;;;;;2.25;0.40;;;27.10;99.00;;;;;;4843665;29;20237;-71
2023/08/22 14:26:02;;;;;;;1.75;0.40;;;27.10;98.40;;;;;;4843409;29;20244;-71
2023/08/22 14:28:29;;;;;;;2.63;1.15;;;27.10;99.10;;;;;;4844308;29;20244;-71
2023/08/22 14:31:01;;;;;;;1.05;0.55;;;27.10;99.30;;;;;;4843468;29;20375;-71
2023/08/22 14:33:28;;;;;;;0.50;0.30;;;26.90;98.70;;;;;;4849475;29;20641;-71
2023/08/22 14:35:55;;;;;;;2.45;0.32;;;26.90;98.60;;;;;;4860451;29;20262;-74
2023/08/22 14:38:22;;;;;;;2.55;0.57;;;26.80;99.40;;;;;;4853213;29;20634;-72
2023/08/22 14:40:56;;;;;;;2.20;0.52;;;26.80;99.20;;;;;;4843241;29;20251;-73
2023/08/22 14:43:23;;;;;;;1.30;0.40;;;26.80;99.10;;;;;;4842968;29;20293;-72
2023/08/22 14:45:50;;;;;;;0.80;0.40;;;26.90;99.90;;;;;;4843292;29;20267;-72
2023/08/22 14:48:18;;;;;;;0.30;0.22;;;26.80;97.50;;;;;;4842524;29;20739;-74
2023/08/22 14:50:45;;;;;;;1.17;0.40;;;26.70;99.60;;;;;;4843271;29;20275;-71
2023/08/22 14:53:14;;;;;;;0.55;0.28;;;26.70;99.10;;;;;;4843377;29;20264;-72
2023/08/22 14:55:41;;;;;;;1.05;0.40;;;26.70;99.00;;;;;;4842956;29;20304;-72
2023/08/22 14:58:10;;;;;;;1.95;0.55;;;26.80;98.20;;;;;;4843046;29;20455;-72
2023/08/22 15:00:37;;;;;;;0.90;0.30;;;26.80;97.90;;;;;;4842911;29;20216;-74
2023/08/22 15:03:04;;;;;;;1.70;0.50;;;26.80;99.10;;;;;;4842369;29;20319;-73
2023/08/22 15:05:38;;;;;;;0.50;0.30;;;26.70;98.70;;;;;;4842295;29;20263;-72
2023/08/22 15:08:06;;;;;;;0.55;0.50;;;26.60;99.80;;;;;;4842812;29;20208;-71
2023/08/22 15:10:33;;;;;;;1.08;0.47;;;26.40;99.90;;;;;;4842251;29;20248;-71
2023/08/22 15:13:00;;;;;;;1.23;0.80;;;26.30;99.90;;;;;;4842952;29;20779;-69
2023/08/22 15:15:28;;;;;;;0.60;0.30;;;26.40;99.90;;;;;;4842695;29;20259;-71
2023/08/22 15:17:55;;;;;;;0.85;0.30;;;26.50;99.70;;;;;;4842214;29;20209;-72
2023/08/22 15:20:23;;;;;;;1.75;0.35;;;26.50;99.10;;;;;;4842648;29;20562;-71
2023/08/22 15:22:52;;;;;;;0.85;0.45;;;26.50;99.90;;;;;;4842665;29;20371;-69
2023/08/22 15:25:19;;;;;;;1.17;0.40;;;26.50;99.90;;;;;;4842315;29;20299;-68
2023/08/22 15:27:48;;;;;;;1.80;0.57;;;26.40;99.90;;;;;;4842834;29;20209;-70
2023/08/22 15:30:16;;;;;;;1.45;0.50;;;26.40;99.90;;;;;;4842579;29;20244;-72
2023/08/22 15:32:42;;;;;;;0.40;0.30;;;26.50;99.20;;;;;;4842373;29;20251;-70
2023/08/22 15:35:10;;;;;;;1.25;0.52;;;26.40;99.90;;;;;;4842724;29;20580;-70
2023/08/22 15:37:37;;;;;;;0.57;0.40;;;26.30;99.90;;;;;;4842244;29;20743;-69
2023/08/22 15:40:06;;;;;;;0.50;0.40;;;26.30;99.90;;;;;;4842085;29;20255;-68
2023/08/22 15:42:36;;;;;;;3.65;0.60;;;26.30;99.90;;;;;;4841995;29;20335;-70
2023/08/22 15:45:04;;;;;;;0.95;0.50;;;26.30;99.90;;;;;;4842553;29;20316;-71
2023/08/22 15:47:31;;;;;;;0.90;0.60;;;26.30;99.90;;;;;;4841547;29;20259;-70
2023/08/22 15:49:58;;;;;;;1.08;0.40;;;26.50;99.90;;;;;;4842175;29;20291;-71
2023/08/22 15:52:26;;;;;;;0.30;0.30;;;26.60;99.90;;;;;;4841985;29;20253;-70
2023/08/22 15:54:53;;;;;;;1.45;0.50;;;26.50;99.90;;;;;;4841571;29;20315;-70
2023/08/22 15:57:22;;;;;;;1.50;0.40;;;26.40;99.90;;;;;;4841552;29;20311;-71
2023/08/22 15:59:48;;;;;;;1.90;0.45;;;26.30;99.90;;;;;;4842146;29;20221;-70
2023/08/22 16:02:15;;;;;;;1.67;0.40;;;26.40;99.90;;;;;;4841625;29;20241;-71
2023/08/22 16:04:42;;;;;;;2.20;0.50;;;26.50;99.90;;;;;;4841539;29;20328;-72
2023/08/22 16:07:09;;;;;;;0.52;0.32;;;26.50;99.90;;;;;;4841422;29;20728;-71
2023/08/22 16:09:36;;;;;;;3.22;0.57;;;26.40;99.90;;;;;;4841568;29;20244;-69
2023/08/22 16:12:03;;;;;;;1.42;0.40;;;26.40;99.90;;;;;;4842063;29;20208;-68
2023/08/22 16:14:32;;;;;;;0.45;0.40;;;26.30;99.90;;;;;;4841867;29;20268;-70
2023/08/22 16:16:59;;;;;;;2.67;0.60;;;26.30;99.90;;;;;;4841592;29;20212;-73
2023/08/22 16:19:26;;;;;;;2.03;0.57;;;26.10;99.90;;;;;;4841172;29;20252;-70
2023/08/22 16:21:53;;;;;;;1.15;0.40;;;26.00;99.90;;;;;;4841704;29;20241;-70
2023/08/22 16:24:19;;;;;;;2.17;0.65;;;25.90;99.90;;;;;;4843280;29;20264;-69
2023/08/22 16:26:47;;;;;;;1.20;0.60;;;26.00;99.90;;;;;;4841543;29;20648;-69
2023/08/22 16:29:15;;;;;;;2.42;0.50;;;25.90;99.90;;;;;;4841744;29;20260;-69
2023/08/22 16:31:43;;;;;;;1.10;0.45;;;26.10;99.90;;;;;;4840671;29;20592;-70
2023/08/22 16:34:10;;;;;;;0.85;0.50;;;26.30;99.90;;;;;;4841435;29;20320;-69
2023/08/22 16:36:37;;;;;;;0.45;0.32;;;26.40;99.90;;;;;;4841204;29;20228;-69
2023/08/22 16:39:05;;;;;;;1.90;0.45;;;26.30;99.90;;;;;;4840631;29;20309;-70
2023/08/22 16:41:32;;;;;;;0.85;0.40;;;26.30;99.90;;;;;;4841165;29;20236;-71
2023/08/22 16:43:59;;;;;;;1.10;0.55;;;26.20;99.90;;;;;;4840565;29;20271;-69
2023/08/22 16:46:27;;;;;;;1.55;0.73;;;26.30;99.90;;;;;;4858295;29;20258;-68
2023/08/22 16:48:56;;;;;;;0.88;0.52;;;26.30;99.90;;;;;;4851579;29;20249;-70
2023/08/22 16:51:22;;;;;;;0.77;0.50;;;26.30;99.90;;;;;;4864089;29;20218;-71
2023/08/22 16:53:50;;;;;;;0.50;0.40;;;26.40;99.90;;;;;;4856555;29;20240;-69
2023/08/22 16:56:17;;;;;;;0.63;0.45;;;26.30;99.90;;;;;;4840673;29;20224;-70
2023/08/22 16:58:44;;;;;;;4.00;0.93;;;26.10;99.90;;;;;;4840819;29;20263;-69
2023/08/22 17:01:11;;;;;;;1.65;0.32;;;26.20;99.90;;;;;;4853690;29;20243;-70
2023/08/22 17:03:38;;;;;;;1.30;0.40;;;26.20;99.90;;;;;;4845948;29;20400;-68
2023/08/22 17:06:06;;;;;;;2.85;0.40;;;26.20;99.90;;;;;;4844315;29;20668;-70
2023/08/22 17:08:34;;;;;;;2.53;0.50;;;26.20;99.90;;;;;;4839580;29;20208;-70
2023/08/22 17:11:07;;;;;;;0.70;0.40;;;26.30;99.90;;;;;;4839620;29;20668;-70
2023/08/22 17:13:34;;;;;;;1.27;0.60;;;26.20;99.90;;;;;;4842122;29;20275;-71
2023/08/22 17:16:02;;;;;;;1.73;0.60;;;26.10;99.90;;;;;;4846809;29;20217;-71
2023/08/22 17:18:28;;;;;;;1.58;0.40;;;26.00;99.90;;;;;;4840517;29;20672;-70
2023/08/22 17:20:55;;;;;;;1.95;0.47;;;26.00;99.90;;;;;;4851229;29;20242;-70
2023/08/22 17:23:24;;;;;;;1.48;0.82;;;26.10;99.90;;;;;;4858662;29;20814;-69
2023/08/22 17:25:51;;;;;;;0.95;0.65;;;26.10;99.90;;;;;;4849280;29;20205;-72
2023/08/22 17:28:18;;;;;;;2.05;0.60;;;26.10;99.90;;;;;;4841011;29;20230;-68
2023/08/22 17:30:44;;;;;;;3.10;0.90;;;26.00;99.90;;;;;;4852667;29;20280;-68
2023/08/22 17:33:11;;;;;;;3.47;0.68;;;25.90;99.90;;;;;;4862595;29;20319;-70
2023/08/22 17:35:38;;;;;;;1.27;0.50;;;25.70;99.90;;;;;;4855067;29;20244;-70
2023/08/22 17:38:05;;;;;;;1.42;0.70;;;25.70;99.90;;;;;;4843962;29;20212;-71
2023/08/22 17:40:35;;;;;;;1.65;0.50;;;25.60;99.90;;;;;;4854534;29;20244;-71
2023/08/22 17:43:03;;;;;;;0.85;0.60;;;25.50;99.90;;;;;;4859586;29;20358;-71
2023/08/22 17:45:30;;;;;;;1.08;0.75;;;25.50;99.90;;;;;;4855918;29;20223;-71
2023/08/22 17:47:57;;;;;;;1.92;0.55;;;25.30;99.90;;;;;;4843933;29;20638;-72
2023/08/22 17:50:24;;;;;;;0.60;0.40;;;25.20;99.90;;;;;;4849389;29;20235;-71
2023/08/22 17:52:52;;;;;;;1.67;0.70;;;25.20;99.90;;;;;;4862310;29;20437;-71
2023/08/22 17:55:19;;;;;;;1.45;0.60;;;25.00;99.90;;;;;;4857998;29;20244;-71
2023/08/22 17:57:50;;;;;;;2.78;0.80;;;24.90;99.90;;;;;;4843018;29;20312;-71
2023/08/22 18:00:22;;;;;;;0.98;0.50;;;24.70;99.90;;;;;;4847272;29;20660;-71
2023/08/22 18:02:49;;;;;;;1.45;0.63;;;24.50;99.90;;;;;;4862375;29;20247;-72
2023/08/22 18:05:15;;;;;;;2.70;0.60;;;24.50;99.90;;;;;;4858770;29;20319;-72
2023/08/22 18:07:42;;;;;;;1.33;0.50;;;24.40;99.90;;;;;;4843615;29;20296;-73
2023/08/22 18:10:10;;;;;;;1.25;0.50;;;24.60;99.90;;;;;;4859742;29;20707;-72
2023/08/22 18:12:37;;;;;;;0.82;0.60;;;24.60;99.90;;;;;;4843849;29;20252;-73
2023/08/22 18:15:06;;;;;;;1.60;0.50;;;24.50;99.90;;;;;;4854580;29;20300;-73
2023/08/22 18:17:33;;;;;;;0.93;0.50;;;24.40;99.90;;;;;;4843212;29;20251;-72
2023/08/22 18:20:02;;;;;;;1.35;0.47;;;24.50;99.90;;;;;;4844218;29;20311;-71
2023/08/22 18:22:29;;;;;;;2.53;0.55;;;24.50;99.90;;;;;;4861082;29;20251;-73
2023/08/22 18:24:56;;;;;;;1.25;0.60;;;24.50;99.90;;;;;;4858838;29;20319;-72
2023/08/22 18:27:22;;;;;;;1.35;0.50;;;24.40;99.90;;;;;;4858711;29;20318;-72
2023/08/22 18:29:49;;;;;;;1.80;1.00;;;24.40;99.90;;;;;;4859896;29;20310;-72
2023/08/22 18:32:17;;;;;;;1.40;0.60;;;24.30;99.90;;;;;;4862767;29;20254;-73
2023/08/22 18:34:44;;;;;;;0.85;0.40;;;24.20;99.90;;;;;;4863019;29;20658;-73
2023/08/22 18:37:11;;;;;;;0.68;0.40;;;24.00;99.90;;;;;;4863135;29;20861;-72
2023/08/22 18:39:39;;;;;;;0.90;0.60;;;23.90;99.90;;;;;;4862841;29;20320;-73
2023/08/22 18:42:07;;;;;;;2.42;0.80;;;23.80;99.90;;;;;;4862051;29;20810;-73
2023/08/22 18:44:33;;;;;;;0.70;0.40;;;23.70;99.90;;;;;;4862806;29;20228;-72
2023/08/22 18:47:00;;;;;;;1.20;0.90;;;23.70;99.90;;;;;;4862737;29;20259;-72
2023/08/22 18:49:28;;;;;;;1.13;0.50;;;23.60;99.90;;;;;;4863005;29;20247;-72
2023/08/22 18:51:55;;;;;;;2.80;0.70;;;23.50;99.90;;;;;;4863211;29;20216;-73
2023/08/22 18:54:22;;;;;;;1.42;0.52;;;23.40;99.90;;;;;;4863049;29;20263;-72
2023/08/22 18:56:49;;;;;;;3.38;0.70;;;23.30;99.90;;;;;;4862741;29;20254;-73
2023/08/22 18:59:16;;;;;;;0.77;0.60;;;23.30;99.90;;;;;;4862687;29;20302;-72
2023/08/22 19:01:44;;;;;;;2.05;0.70;;;23.30;99.90;;;;;;4862662;29;20304;-72
2023/08/22 19:04:11;;;;;;;3.22;0.60;;;23.30;99.90;;;;;;4862667;29;20236;-72
2023/08/22 19:06:39;;;;;;;3.08;0.60;;;23.10;99.90;;;;;;4862663;29;20244;-72
2023/08/22 19:09:08;;;;;;;1.77;0.60;;;23.00;99.90;;;;;;4862931;29;20299;-72
2023/08/22 19:11:35;;;;;;;1.73;0.73;;;23.00;99.90;;;;;;4862886;29;20216;-73
2023/08/22 19:14:01;;;;;;;0.70;0.60;;;22.90;99.90;;;;;;4862530;29;20737;-72
2023/08/22 19:16:28;;;;;;;1.27;0.63;;;22.90;99.90;;;;;;4862687;29;20216;-72
2023/08/22 19:18:54;;;;;;;0.73;0.60;;;22.90;99.90;;;;;;4862848;29;20303;-72
2023/08/22 19:21:21;;;;;;;3.95;0.90;;;22.80;99.90;;;;;;4862306;29;20303;-72
2023/08/22 19:23:50;;;;;;;1.70;0.60;;;22.60;99.90;;;;;;4862303;29;20343;-72
2023/08/22 19:26:17;;;;;;;1.30;0.57;;;22.50;99.90;;;;;;4862435;29;20212;-72
2023/08/22 19:28:44;;;;;;;2.70;0.65;;;22.40;99.90;;;;;;4862236;29;20247;-72
2023/08/22 19:31:11;;;;;;;1.38;0.60;;;22.30;99.90;;;;;;4862157;29;20216;-72
2023/08/22 19:33:43;;;;;;;2.05;0.70;;;22.20;99.90;;;;;;4861853;29;20278;-72
2023/08/22 19:36:10;;;;;;;1.13;0.60;;;22.10;99.90;;;;;;4862442;29;20240;-72
2023/08/22 19:38:37;;;;;;;1.08;0.43;;;22.10;99.90;;;;;;4862126;29;20258;-72
2023/08/22 19:41:05;;;;;;;2.10;0.75;;;22.00;99.90;;;;;;4862098;29;20220;-72
2023/08/22 19:43:32;;;;;;;2.85;0.60;;;21.90;99.90;;;;;;4861927;29;20282;-72
2023/08/22 19:45:59;;;;;;;0.95;0.60;;;21.80;99.90;;;;;;4861476;29;20310;-72
2023/08/22 19:48:26;;;;;;;1.10;0.63;;;21.80;99.90;;;;;;4861363;29;20667;-72
2023/08/22 19:50:53;;;;;;;2.90;0.70;;;21.70;99.90;;;;;;4861551;29;20243;-72
2023/08/22 19:53:20;;;;;;;0.73;0.70;;;21.70;99.90;;;;;;4860819;29;20270;-72
2023/08/22 19:55:48;;;;;;;1.60;0.82;;;21.60;99.90;;;;;;4861193;29;20680;-72
2023/08/22 19:58:16;;;;;;;1.33;0.70;;;21.60;99.90;;;;;;4861367;29;20209;-72
2023/08/22 20:00:46;;;;;;;0.63;0.47;;;21.50;99.90;;;;;;4861159;29;20222;-72
2023/08/22 20:03:13;;;;;;;1.50;0.95;;;21.50;99.90;;;;;;4861005;29;20255;-72
2023/08/22 20:05:40;;;;;;;1.90;0.70;;;21.40;99.90;;;;;;4861388;29;20212;-72
2023/08/22 20:08:07;;;;;;;0.98;0.63;;;21.40;99.90;;;;;;4861173;29;20302;-72
2023/08/22 20:10:34;;;;;;;1.80;0.90;;;21.40;99.90;;;;;;4861171;29;20248;-72
2023/08/22 20:13:01;;;;;;;0.77;0.60;;;21.30;99.90;;;;;;4860995;29;20228;-72
2023/08/22 20:15:29;;;;;;;0.85;0.70;;;21.20;99.90;;;;;;4861021;29;20702;-72
2023/08/22 20:17:56;;;;;;;0.75;0.63;;;21.20;99.90;;;;;;4860664;29;20301;-72
2023/08/22 20:20:24;;;;;;;1.75;0.75;;;21.10;99.90;;;;;;4861034;29;20663;-72
2023/08/22 20:22:51;;;;;;;3.78;0.80;;;21.10;99.90;;;;;;4860722;29;20335;-73
2023/08/22 20:25:18;;;;;;;2.58;0.90;;;21.10;99.90;;;;;;4860739;29;20255;-72
2023/08/22 20:27:46;;;;;;;1.65;0.93;;;21.00;99.90;;;;;;4860842;29;20248;-72
2023/08/22 20:30:14;;;;;;;1.33;0.70;;;21.00;99.90;;;;;;4860901;29;20293;-72
2023/08/22 20:32:43;;;;;;;2.85;0.80;;;21.00;99.90;;;;;;4860740;29;20228;-72
2023/08/22 20:35:10;;;;;;;0.90;0.60;;;20.90;99.90;;;;;;4860718;29;20218;-72
2023/08/22 20:37:37;;;;;;;1.10;0.60;;;20.90;99.90;;;;;;4860661;29;20235;-72
2023/08/22 20:40:06;;;;;;;2.40;0.75;;;20.90;99.90;;;;;;4859657;29;20244;-72
2023/08/22 20:42:32;;;;;;;1.08;0.70;;;20.80;99.90;;;;;;4848386;29;20263;-72
2023/08/22 20:44:59;;;;;;;1.70;0.90;;;20.70;99.90;;;;;;4850393;29;20262;-72
2023/08/22 20:47:26;;;;;;;1.48;0.77;;;20.70;99.90;;;;;;4851423;29;20315;-72
2023/08/22 20:49:56;;;;;;;1.88;0.70;;;20.60;99.90;;;;;;4849960;29;20236;-72
2023/08/22 20:52:23;;;;;;;1.17;0.70;;;20.60;99.90;;;;;;4849495;29;20768;-72
2023/08/22 20:54:50;;;;;;;3.22;1.17;;;20.50;99.90;;;;;;4860664;29;20275;-72
2023/08/22 20:57:16;;;;;;;1.27;0.90;;;20.50;99.90;;;;;;4860210;29;20259;-72
2023/08/22 20:59:44;;;;;;;1.70;0.63;;;20.50;99.90;;;;;;4860659;29;20311;-73
2023/08/22 21:02:12;;;;;;;3.17;0.82;;;20.40;99.90;;;;;;4860091;29;20219;-72
2023/08/22 21:04:40;;;;;;;2.30;0.70;;;20.40;99.90;;;;;;4854058;29;20330;-73
